Etusivu
METAR-TAF:

METAR-TAF

Lentoasemat :

Dalian, Kiina

Leveyspiiri: 38-54N, Pituuspiiri: 121-38E, korkeus merenpinnasta: 97 m

Tämänhetkinen sää

Tämä raportti tehtiin 19 minuuttia sitten, kello 03.00 UTC
Tuuli 2 kn eri suunnista
Lämpötila -1°C
Kosteus 54%
Ilmanpaine 1030 hPa
Näkyvyys 10 km tai enemmän
ei pilviä alle 1500 m:ssä eikä cumulonimbus-pilviä

METAR: ZYTL 240300Z VRB01MPS CAVOK M01/M09 Q1030 NOSIG

Aika: 11:19 (03:19 UTC)

Sääennuste

Tämä raportti tehtiin 6 tuntia ja 4 minuuttia sitten, kello 21.15 UTC
Ennuste voimassa 24. päivästä klo 00 UTC - 24. päivään klo 24 UTC
Tuuli 8 kn pohjoisen/luoteesta
Näkyvyys: 6000 m
Hajanaisia pilviä 3300 ft:n korkeudessa

TAF: ZYTL 232115Z 2400/2424 34004MPS 6000 SCT033 TX05/2406Z TNM04/2421Z

Säähavainnot ja -ennusteet yli 4000 lentoasemalta (METAR- ja TAF-raportit).

Käytössä olevat sääasemat on merkitty karttaan keltaisilla ja punaisilla pisteillä.

Aseta hiiri pisteen päälle nähdäksesi sääaseman nimen.

Klikkaa sitten nähdäksesi säähavainnot ja -ennusteet.

Kartan vaihtaminen: klikkaa mustalla rastilla varustettuja vihreitä pisteitä, niin voit zoomata sisään; viivalla varustettua vihreää pistettä, niin voit zoomata ulos tai vihreitä nuolia, niin pääset viereisille kartoille.


METAR-TAF: